Newtown, Virginia
Current Conditions -  °F | °C
As of 3:55 PM on Thursday 18 Dec 2014 (Local Time) from KXSA Reporting Station
Clear Clear  
Wind Chill: 40°   Ceiling: Unl
Heat Index: 43°   Visibility: 10mi
Dew Point: 19°   Wind: 5mph
Humidity: 39%   Direction: 360°N
Pressure: 30.09"   Gusts: NA
Location:  37.91°N, 77.12°W
Report Text: KXSA 182055Z AUTO 36004KT 10SM CLR 06/M07 A3009 RMK AO2 T00611070
Loading
Personal Weather Stations






























Interactive Weather Map New forecast layout! Learn more

10-Day Weather Forecast

Advertisements
Track Severe Weather on mobile